METAR AND TAF INFORMATION
METAR FOR UAOO
ADDS - METARS form results

(1440 UTC 30 May 2020)
Data provider http://aviationweather.gov/metar/data/
 
METAR text: UAOO 301430Z 07004MPS CAVOK 34/M01 Q1011 R05/CLRD70 NOSIG RMK QFE746/0995
Conditions at: UAOO (KZYL-ORDA , KZ) observed 1430 UTC 30 May 2020
Temperature: 34.0°C (93°F)
Dewpoint: -1.0°C (30°F) [RH = 11%]
Pressure (altimeter): 29.85 inches Hg (1011.0 mb)
Winds: from the ENE (70 degrees) at 9 MPH (8 knots; 4.1 m/s)
Visibility: 6 or more miles (10+ km)
Ceiling: ceiling and visibility are OK
Clouds: unknown
Weather: no significant weather observed at this time

METAR text: UAOO 301400Z 06005MPS 030V090 CAVOK 36/M01 Q1011 R05/CLRD70 NOSIG RMK QFE746/0995
Conditions at: UAOO (KZYL-ORDA , KZ) observed 1400 UTC 30 May 2020
Temperature: 36.0°C (97°F)
Dewpoint: -1.0°C (30°F) [RH = 10%]
Pressure (altimeter): 29.85 inches Hg (1011.0 mb)
Winds: from the ENE (60 degrees) at 12 MPH (10 knots; 5.1 m/s)
Visibility: 6 or more miles (10+ km)
Ceiling: ceiling and visibility are OK
Clouds: unknown
Weather: no significant weather observed at this time

Forecast for: UAOO (KZYL-ORDA , KZ)
Text: TAF UAOO 301400Z 3015/3024 06004MPS CAVOK
Forecast period: 1500 UTC 30 May 2020 to 0000 UTC 31 May 2020
Forecast type: FROM: standard forecast or significant change
Winds: from the ENE (60 degrees) at 9 MPH (8 knots; 4.1 m/s)
Visibility: 6 or more miles 10+ km)
Ceiling: unknown
Clouds: missing
Weather: NSW  (no significant weather)

 AIRPORT MAP

 RUNWAY INFORMATION

 AIRPORT FREQUENCIES

 AIRPORT NEAR NAVIGATION AIDS



2018 Air Astana Virtual Airline